createdAt,value
2023-05-12T00:00:46.832Z,6.18
2023-05-12T00:03:13.758Z,5.47
2023-05-12T00:05:40.207Z,5.95
2023-05-12T00:08:08.981Z,6.30
2023-05-12T00:10:35.709Z,5.80
2023-05-12T00:13:02.592Z,6.38
2023-05-12T00:15:29.083Z,6.35
2023-05-12T00:17:55.466Z,6.50
2023-05-12T00:20:22.231Z,7.05
2023-05-12T00:22:51.196Z,7.20
2023-05-12T00:25:17.609Z,6.78
2023-05-12T00:27:44.007Z,7.60
2023-05-12T00:30:10.762Z,7.15
2023-05-12T00:32:37.407Z,7.10
2023-05-12T00:35:04.049Z,7.82
2023-05-12T00:37:32.842Z,7.88
2023-05-12T00:39:59.283Z,8.02
2023-05-12T00:42:28.226Z,7.68
2023-05-12T00:44:54.610Z,8.13
2023-05-12T00:47:23.603Z,8.40
2023-05-12T00:49:50.040Z,8.20
2023-05-12T00:52:16.375Z,8.65
2023-05-12T00:54:43.916Z,8.77
2023-05-12T00:57:11.026Z,8.90
2023-05-12T00:59:37.490Z,8.32
2023-05-12T01:02:04.114Z,8.70
2023-05-12T01:04:30.594Z,9.05
2023-05-12T01:06:59.410Z,9.45
2023-05-12T01:09:25.860Z,9.48
2023-05-12T01:11:52.336Z,9.70
2023-05-12T01:14:18.682Z,10.45
2023-05-12T01:16:51.399Z,9.90
2023-05-12T01:19:38.037Z,10.15
2023-05-12T01:22:04.634Z,10.73
2023-05-12T01:24:33.562Z,10.35
2023-05-12T01:27:01.245Z,9.98
2023-05-12T01:29:28.310Z,10.20
2023-05-12T01:31:55.250Z,10.30
2023-05-12T01:34:21.647Z,11.13
2023-05-12T01:36:48.018Z,11.35
2023-05-12T01:39:14.359Z,11.18
2023-05-12T01:41:41.069Z,11.43
2023-05-12T01:44:09.936Z,11.80
2023-05-12T01:46:36.646Z,11.25
2023-05-12T01:49:03.025Z,11.52
2023-05-12T01:51:29.401Z,10.80
2023-05-12T01:53:55.740Z,11.40
2023-05-12T01:56:22.852Z,11.32
2023-05-12T01:58:50.215Z,11.07
2023-05-12T02:01:16.670Z,11.05
2023-05-12T02:03:44.140Z,10.88
2023-05-12T02:06:10.737Z,11.55
2023-05-12T02:08:37.128Z,11.52
2023-05-12T02:11:07.242Z,11.32
2023-05-12T02:13:34.344Z,11.27
2023-05-12T02:16:03.752Z,10.88
2023-05-12T02:18:30.265Z,11.23
2023-05-12T02:20:56.745Z,11.77
2023-05-12T02:23:23.805Z,11.90
2023-05-12T02:25:52.575Z,12.57
2023-05-12T02:28:18.918Z,12.27
2023-05-12T02:30:46.352Z,13.52
2023-05-12T02:33:12.822Z,13.25
2023-05-12T02:35:39.343Z,12.85
2023-05-12T02:38:05.697Z,13.82
2023-05-12T02:40:32.089Z,13.57
2023-05-12T02:42:58.427Z,13.68
2023-05-12T02:45:24.773Z,13.65
2023-05-12T02:47:51.175Z,13.50
2023-05-12T02:50:21.744Z,14.15
2023-05-12T02:52:48.599Z,13.52
2023-05-12T02:55:15.058Z,13.82
2023-05-12T02:57:41.496Z,13.48
2023-05-12T03:00:08.040Z,13.00
2023-05-12T03:02:35.106Z,12.50
2023-05-12T03:05:01.806Z,11.77
2023-05-12T03:07:28.221Z,12.30
2023-05-12T03:09:54.767Z,12.52
2023-05-12T03:12:21.283Z,12.43
2023-05-12T03:14:47.708Z,12.75
2023-05-12T03:17:14.187Z,11.80
2023-05-12T03:19:43.214Z,11.82
2023-05-12T03:22:09.611Z,12.45
2023-05-12T03:24:36.808Z,12.63
2023-05-12T03:27:03.326Z,11.82
2023-05-12T03:29:29.774Z,11.60
2023-05-12T03:31:56.180Z,10.88
2023-05-12T03:34:22.631Z,11.00
2023-05-12T03:36:49.135Z,10.02
2023-05-12T03:39:15.747Z,10.15
2023-05-12T03:41:42.134Z,9.93
2023-05-12T03:44:08.585Z,9.70
2023-05-12T03:46:37.477Z,9.05
2023-05-12T03:49:04.237Z,9.65
2023-05-12T03:51:31.091Z,9.18
2023-05-12T03:53:57.507Z,8.73
2023-05-12T03:56:26.291Z,9.13
2023-05-12T03:58:52.679Z,9.32
2023-05-12T04:01:19.105Z,8.50
2023-05-12T04:03:46.200Z,8.50
2023-05-12T04:06:12.688Z,8.70
2023-05-12T04:08:41.652Z,9.27
2023-05-12T04:11:09.387Z,9.30
2023-05-12T04:13:35.827Z,9.00
2023-05-12T04:16:02.305Z,9.40
2023-05-12T04:18:28.981Z,9.23
2023-05-12T04:20:57.787Z,8.48
2023-05-12T04:23:24.261Z,8.60
2023-05-12T04:25:50.695Z,8.73
2023-05-12T04:28:17.111Z,9.00
2023-05-12T04:30:45.959Z,7.97
2023-05-12T04:33:12.424Z,8.55
2023-05-12T04:35:38.827Z,8.05
2023-05-12T04:38:05.221Z,8.30
2023-05-12T04:40:34.123Z,7.78
2023-05-12T04:43:01.331Z,8.10
2023-05-12T04:45:27.740Z,8.35
2023-05-12T04:47:54.228Z,7.85
2023-05-12T04:50:20.811Z,8.60
2023-05-12T04:52:47.166Z,8.90
2023-05-12T04:55:13.551Z,8.20
2023-05-12T04:57:41.358Z,9.57
2023-05-12T05:00:09.209Z,9.23
2023-05-12T05:02:35.791Z,9.73
2023-05-12T05:05:02.331Z,10.00
2023-05-12T05:07:28.733Z,10.00
2023-05-12T05:09:55.152Z,9.88
2023-05-12T05:12:21.536Z,10.55
2023-05-12T05:14:48.081Z,9.52
2023-05-12T05:17:16.892Z,10.43
2023-05-12T05:19:54.911Z,9.95
2023-05-12T05:22:24.443Z,10.35
2023-05-12T05:24:50.857Z,9.70
2023-05-12T05:27:17.221Z,9.57
2023-05-12T05:29:43.668Z,9.10
2023-05-12T05:32:10.039Z,9.07
2023-05-12T05:34:36.484Z,9.00
2023-05-12T05:37:03.427Z,8.85
2023-05-12T05:39:31.039Z,8.93
2023-05-12T05:41:57.962Z,9.00
2023-05-12T05:44:25.106Z,8.82
2023-05-12T05:46:51.601Z,9.25
2023-05-12T05:49:18.425Z,10.48
2023-05-12T05:51:44.937Z,9.43
2023-05-12T05:54:12.106Z,9.60
2023-05-12T05:56:38.590Z,9.88
2023-05-12T05:59:07.351Z,9.88
2023-05-12T06:01:33.797Z,11.02
2023-05-12T06:04:00.398Z,11.10
2023-05-12T06:06:26.857Z,11.20
2023-05-12T06:08:55.962Z,12.10
2023-05-12T06:11:22.512Z,12.23
2023-05-12T06:13:48.920Z,12.73
2023-05-12T06:16:15.456Z,13.73
2023-05-12T06:18:41.939Z,13.65
2023-05-12T06:21:08.471Z,13.27
2023-05-12T06:23:34.973Z,13.98
2023-05-12T06:26:01.345Z,18.50
2023-05-12T06:28:30.122Z,18.95
2023-05-12T06:30:56.573Z,17.98
2023-05-12T06:33:22.944Z,16.05
2023-05-12T06:35:49.327Z,14.07
2023-05-12T06:38:15.913Z,12.93
2023-05-12T06:40:42.321Z,13.43
2023-05-12T06:43:08.728Z,12.73
2023-05-12T06:45:35.200Z,12.90
2023-05-12T06:48:03.173Z,12.18
2023-05-12T06:50:32.304Z,12.57
2023-05-12T06:52:58.694Z,12.30
2023-05-12T06:55:25.120Z,12.48
2023-05-12T06:57:56.123Z,11.52
2023-05-12T07:00:23.411Z,11.93
2023-05-12T07:02:49.795Z,12.63
2023-05-12T07:05:16.543Z,11.38
2023-05-12T07:07:42.984Z,11.25
2023-05-12T07:10:09.534Z,9.05
2023-05-12T07:12:36.087Z,9.40
2023-05-12T07:15:02.622Z,10.15
2023-05-12T07:17:29.079Z,9.25
2023-05-12T07:19:55.530Z,9.93
2023-05-12T07:22:22.036Z,10.75
2023-05-12T07:24:50.853Z,9.23
2023-05-12T07:27:17.745Z,7.53
2023-05-12T07:29:44.811Z,8.10
2023-05-12T07:32:11.651Z,7.93
2023-05-12T07:34:38.693Z,7.47
2023-05-12T07:37:07.330Z,7.65
2023-05-12T07:39:33.893Z,8.80
2023-05-12T07:42:00.300Z,8.65
2023-05-12T07:44:27.927Z,9.38
2023-05-12T07:46:56.793Z,8.75
2023-05-12T07:49:23.364Z,8.63
2023-05-12T07:51:50.040Z,9.00
2023-05-12T07:54:16.417Z,8.95
2023-05-12T07:56:42.796Z,9.15
2023-05-12T07:59:09.178Z,9.57
2023-05-12T08:01:38.954Z,9.38
2023-05-12T08:04:08.136Z,9.25
2023-05-12T08:06:37.254Z,9.10
2023-05-12T08:09:04.047Z,10.32
2023-05-12T08:11:30.640Z,10.23
2023-05-12T08:13:57.030Z,10.52
2023-05-12T08:16:23.568Z,9.32
2023-05-12T08:18:50.095Z,9.88
2023-05-12T08:21:18.717Z,9.63
2023-05-12T08:23:45.217Z,10.20
2023-05-12T08:26:11.852Z,10.50
2023-05-12T08:28:38.315Z,10.10
2023-05-12T08:31:05.280Z,9.40
2023-05-12T08:33:31.781Z,9.77
2023-05-12T08:35:58.230Z,10.05
2023-05-12T08:38:24.624Z,9.77
2023-05-12T08:40:50.960Z,9.85
2023-05-12T08:43:25.976Z,10.52
2023-05-12T08:45:58.247Z,11.05
2023-05-12T08:48:25.601Z,13.18
2023-05-12T08:50:53.786Z,12.32
2023-05-12T08:53:24.035Z,13.45
2023-05-12T08:57:08.240Z,12.02
2023-05-12T08:58:41.667Z,10.80
2023-05-12T09:01:11.066Z,11.00
2023-05-12T09:03:37.608Z,11.15
2023-05-12T09:06:05.736Z,12.07
2023-05-12T09:08:35.621Z,11.43
2023-05-12T09:11:02.545Z,11.65
2023-05-12T09:13:49.624Z,11.52
2023-05-12T09:16:18.631Z,10.57
2023-05-12T09:18:54.881Z,9.65
2023-05-12T09:21:21.516Z,8.43
2023-05-12T09:24:08.935Z,8.07
2023-05-12T09:26:45.913Z,8.23
2023-05-12T09:29:18.266Z,6.93
2023-05-12T09:31:57.741Z,6.95
2023-05-12T09:34:36.966Z,7.20
2023-05-12T09:37:05.050Z,7.57
2023-05-12T09:39:31.574Z,6.57
2023-05-12T09:41:57.999Z,6.63
2023-05-12T09:44:26.682Z,6.60
2023-05-12T09:46:53.876Z,6.28
2023-05-12T09:49:24.970Z,6.75
2023-05-12T09:51:58.648Z,6.07
2023-05-12T09:56:52.360Z,7.45
2023-05-12T09:59:20.221Z,7.15
2023-05-12T10:01:47.668Z,7.47
2023-05-12T10:04:14.227Z,7.07
2023-05-12T10:06:45.580Z,7.43
2023-05-12T10:09:34.186Z,7.07
2023-05-12T10:12:01.743Z,7.10
2023-05-12T10:14:28.868Z,7.25
2023-05-12T10:16:56.002Z,5.30
2023-05-12T10:19:22.594Z,5.32
2023-05-12T10:21:49.511Z,5.05
2023-05-12T10:24:19.105Z,5.00
2023-05-12T10:26:45.673Z,4.82
2023-05-12T10:29:12.769Z,5.63
2023-05-12T10:31:42.945Z,8.10
2023-05-12T10:34:15.890Z,5.78
2023-05-12T10:36:49.766Z,5.57
2023-05-12T10:39:19.459Z,5.10
2023-05-12T10:41:48.860Z,5.07
2023-05-12T10:44:26.261Z,4.50
2023-05-12T10:47:01.726Z,4.30
2023-05-12T10:49:37.456Z,4.60
2023-05-12T10:52:03.997Z,3.78
2023-05-12T10:54:37.407Z,4.20
2023-05-12T10:59:48.167Z,3.83
2023-05-12T11:02:19.038Z,4.50
2023-05-12T11:04:56.208Z,4.03
2023-05-12T11:07:24.712Z,4.40
2023-05-12T11:09:58.571Z,5.05
2023-05-12T11:12:27.634Z,3.95
2023-05-12T11:14:54.154Z,4.32
2023-05-12T11:17:20.649Z,3.40
2023-05-12T11:19:48.096Z,3.80
2023-05-12T11:22:16.911Z,3.70
2023-05-12T11:24:43.332Z,3.35
2023-05-12T11:27:13.919Z,3.47
2023-05-12T11:29:41.644Z,3.50
2023-05-12T11:32:12.538Z,3.40
2023-05-12T11:34:39.087Z,3.50
2023-05-12T11:37:06.656Z,3.55
2023-05-12T11:39:33.222Z,3.60
2023-05-12T11:42:12.249Z,3.35
2023-05-12T11:44:49.188Z,3.50
2023-05-12T11:47:16.116Z,3.42
2023-05-12T11:49:50.015Z,3.60
2023-05-12T11:52:18.386Z,3.40
2023-05-12T11:55:06.076Z,3.35
2023-05-12T11:57:33.545Z,2.90
2023-05-12T12:00:00.649Z,3.40
2023-05-12T12:02:27.733Z,3.47
2023-05-12T12:04:54.265Z,3.17
2023-05-12T12:07:31.595Z,3.00
2023-05-12T12:09:58.568Z,6.35
2023-05-12T12:12:24.985Z,4.13
2023-05-12T12:14:51.853Z,2.95
2023-05-12T12:17:25.366Z,3.58
2023-05-12T12:19:52.917Z,3.42
2023-05-12T12:22:19.355Z,3.50
2023-05-12T12:24:46.255Z,3.40
2023-05-12T12:27:12.773Z,2.97
2023-05-12T12:29:39.336Z,3.40
2023-05-12T12:32:05.926Z,3.38
2023-05-12T12:34:32.834Z,3.08
2023-05-12T12:36:59.228Z,2.70
2023-05-12T12:39:28.224Z,2.85
2023-05-12T12:41:54.743Z,2.93
2023-05-12T12:44:23.705Z,2.90
2023-05-12T12:46:50.394Z,2.70
2023-05-12T12:49:16.802Z,2.50
2023-05-12T12:51:47.022Z,2.58
2023-05-12T12:54:16.371Z,2.28
2023-05-12T12:56:44.497Z,2.75
2023-05-12T12:59:11.814Z,2.47
2023-05-12T13:01:38.209Z,3.20
2023-05-12T13:04:04.940Z,2.63
2023-05-12T13:06:31.391Z,2.90
2023-05-12T13:08:57.767Z,3.47
2023-05-12T13:11:24.169Z,2.97
2023-05-12T13:13:50.678Z,2.60
2023-05-12T13:16:17.114Z,2.60
2023-05-12T13:18:46.089Z,3.03
2023-05-12T13:21:14.747Z,3.40
2023-05-12T13:23:41.177Z,2.70
2023-05-12T13:26:07.580Z,2.75
2023-05-12T13:28:34.007Z,2.83
2023-05-12T13:31:00.532Z,2.65
2023-05-12T13:33:26.960Z,2.60
2023-05-12T13:35:53.344Z,2.33
2023-05-12T13:38:19.914Z,2.33
2023-05-12T13:40:46.657Z,2.05
2023-05-12T13:43:13.220Z,1.92
2023-05-12T13:45:39.569Z,1.83
2023-05-12T13:48:06.246Z,1.50
2023-05-12T13:50:33.721Z,2.00
2023-05-12T13:53:00.335Z,1.80
2023-05-12T13:55:27.119Z,1.58
2023-05-12T13:57:53.827Z,1.65
2023-05-12T14:00:20.486Z,1.40
2023-05-12T14:02:46.966Z,1.60
2023-05-12T14:05:13.550Z,1.35
2023-05-12T14:07:40.020Z,1.17
2023-05-12T14:10:06.721Z,1.30
2023-05-12T14:12:33.126Z,1.30
2023-05-12T14:15:11.944Z,1.30
2023-05-12T14:17:46.167Z,1.35
2023-05-12T14:20:12.686Z,1.10
2023-05-12T14:22:39.183Z,1.17
2023-05-12T14:25:05.796Z,1.30
2023-05-12T14:27:32.287Z,1.35
2023-05-12T14:29:58.657Z,1.20
2023-05-12T14:32:25.181Z,1.20
2023-05-12T14:34:51.643Z,1.10
2023-05-12T14:37:18.089Z,1.10
2023-05-12T14:39:44.613Z,1.10
2023-05-12T14:42:16.236Z,1.58
2023-05-12T14:44:42.816Z,1.10
2023-05-12T14:47:09.370Z,0.90
2023-05-12T14:49:35.784Z,1.00
2023-05-12T14:52:02.636Z,1.10
2023-05-12T14:54:28.988Z,1.05
2023-05-12T14:56:55.363Z,1.38
2023-05-12T14:59:24.207Z,1.40
2023-05-12T15:01:50.642Z,3.70
2023-05-12T15:04:17.120Z,1.10
2023-05-12T15:06:43.573Z,1.83
2023-05-12T15:09:09.959Z,2.28
2023-05-12T15:11:36.979Z,1.30
2023-05-12T15:14:04.705Z,1.20
2023-05-12T15:16:31.410Z,1.25
2023-05-12T15:18:57.964Z,1.20
2023-05-12T15:21:24.437Z,1.20
2023-05-12T15:23:50.888Z,1.00
2023-05-12T15:26:31.885Z,1.13
2023-05-12T15:28:59.365Z,1.00
2023-05-12T15:31:28.639Z,1.20
2023-05-12T15:33:56.065Z,1.00
2023-05-12T15:36:22.692Z,0.93
2023-05-12T15:38:49.108Z,1.00
2023-05-12T15:41:15.581Z,0.95
2023-05-12T15:43:42.463Z,1.17
2023-05-12T15:46:10.842Z,1.10
2023-05-12T15:48:37.547Z,1.05
2023-05-12T15:51:04.263Z,1.10
2023-05-12T15:53:31.102Z,1.20
2023-05-12T15:56:04.433Z,1.20
2023-05-12T15:58:33.190Z,1.10
2023-05-12T16:00:59.564Z,1.23
2023-05-12T16:03:26.417Z,1.38
2023-05-12T16:05:53.023Z,1.30
2023-05-12T16:08:19.712Z,1.30
2023-05-12T16:10:46.134Z,1.50
2023-05-12T16:13:13.697Z,1.50
2023-05-12T16:15:40.127Z,1.38
2023-05-12T16:18:09.149Z,1.40
2023-05-12T16:20:37.458Z,1.77
2023-05-12T16:23:06.309Z,1.80
2023-05-12T16:25:32.814Z,1.45
2023-05-12T16:27:59.442Z,1.60
2023-05-12T16:30:26.331Z,1.40
2023-05-12T16:32:52.809Z,1.20
2023-05-12T16:35:19.540Z,1.48
2023-05-12T16:37:46.361Z,1.25
2023-05-12T16:40:12.847Z,1.65
2023-05-12T16:42:39.256Z,2.38
2023-05-12T16:45:06.389Z,1.50
2023-05-12T16:47:32.942Z,1.83
2023-05-12T16:49:59.777Z,1.48
2023-05-12T16:52:26.624Z,1.50
2023-05-12T16:54:53.262Z,1.40
2023-05-12T16:57:20.197Z,1.70
2023-05-12T16:59:48.261Z,1.30
2023-05-12T17:02:14.956Z,1.52
2023-05-12T17:04:41.729Z,2.00
2023-05-12T17:07:08.284Z,1.60
2023-05-12T17:09:34.717Z,1.75
2023-05-12T17:12:01.587Z,1.77
2023-05-12T17:14:28.298Z,1.50
2023-05-12T17:16:54.693Z,1.50
2023-05-12T17:19:23.663Z,1.77
2023-05-12T17:21:50.347Z,1.63
2023-05-12T17:24:16.745Z,1.92
2023-05-12T17:26:43.252Z,1.83
2023-05-12T17:29:09.667Z,1.60
2023-05-12T17:31:36.987Z,1.83
2023-05-12T17:34:03.398Z,1.70
2023-05-12T17:36:29.908Z,1.77
2023-05-12T17:38:58.644Z,1.70
2023-05-12T17:41:26.986Z,1.58
2023-05-12T17:43:54.134Z,1.73
2023-05-12T17:46:23.402Z,1.58
2023-05-12T17:48:52.318Z,1.65
2023-05-12T17:51:18.728Z,2.60
2023-05-12T17:53:46.228Z,3.55
2023-05-12T17:56:12.633Z,1.85
2023-05-12T17:58:39.224Z,1.90
2023-05-12T18:01:08.153Z,1.80
2023-05-12T18:03:35.069Z,1.90
2023-05-12T18:06:02.228Z,1.52
2023-05-12T18:08:28.604Z,1.90
2023-05-12T18:10:54.981Z,1.85
2023-05-12T18:13:21.509Z,2.75
2023-05-12T18:15:48.707Z,4.38
2023-05-12T18:18:15.126Z,3.03
2023-05-12T18:20:42.125Z,2.20
2023-05-12T18:23:08.588Z,2.30
2023-05-12T18:25:34.945Z,1.90
2023-05-12T18:28:01.593Z,2.35
2023-05-12T18:30:28.123Z,2.33
2023-05-12T18:32:54.682Z,2.00
2023-05-12T18:35:21.833Z,2.70
2023-05-12T18:37:48.562Z,2.20
2023-05-12T18:40:14.959Z,2.25
2023-05-12T18:42:41.408Z,2.00
2023-05-12T18:45:08.045Z,2.45
2023-05-12T18:47:34.678Z,2.08
2023-05-12T18:50:01.182Z,2.00
2023-05-12T18:52:27.647Z,2.00
2023-05-12T18:54:54.016Z,2.22
2023-05-12T18:57:20.867Z,2.50
2023-05-12T18:59:47.251Z,1.88
2023-05-12T19:02:16.132Z,1.95
2023-05-12T19:04:44.812Z,2.10
2023-05-12T19:07:15.202Z,2.03
2023-05-12T19:09:42.450Z,2.13
2023-05-12T19:12:11.141Z,1.83
2023-05-12T19:14:38.972Z,1.48
2023-05-12T19:17:06.330Z,1.52
2023-05-12T19:19:32.833Z,1.65
2023-05-12T19:21:59.291Z,1.70
2023-05-12T19:24:26.750Z,1.80
2023-05-12T19:26:53.371Z,1.67
2023-05-12T19:29:22.356Z,1.75
2023-05-12T19:31:48.912Z,2.10
2023-05-12T19:34:15.434Z,1.60
2023-05-12T19:36:41.929Z,1.60
2023-05-12T19:39:08.382Z,1.58
2023-05-12T19:41:37.293Z,1.67
2023-05-12T19:44:04.151Z,1.80
2023-05-12T19:46:30.631Z,1.40
2023-05-12T19:48:57.026Z,1.50
2023-05-12T19:51:23.450Z,1.50
2023-05-12T19:53:49.813Z,1.40
2023-05-12T19:56:16.465Z,1.75
2023-05-12T19:58:42.937Z,1.75
2023-05-12T20:01:10.359Z,1.75
2023-05-12T20:03:36.862Z,1.88
2023-05-12T20:06:04.325Z,1.80
2023-05-12T20:08:30.731Z,1.60
2023-05-12T20:10:59.571Z,1.40
2023-05-12T20:13:25.984Z,1.40
2023-05-12T20:15:52.364Z,1.55
2023-05-12T20:18:18.820Z,1.75
2023-05-12T20:20:45.288Z,1.80
2023-05-12T20:23:11.697Z,1.70
2023-05-12T20:25:40.590Z,1.90
2023-05-12T20:28:09.338Z,1.77
2023-05-12T20:30:36.196Z,1.80
2023-05-12T20:33:02.764Z,1.90
2023-05-12T20:35:29.245Z,1.45
2023-05-12T20:37:55.650Z,1.70
2023-05-12T20:40:22.592Z,2.00
2023-05-12T20:42:51.349Z,2.00
2023-05-12T20:45:20.641Z,1.80
2023-05-12T20:47:47.286Z,1.70
2023-05-12T20:50:13.750Z,1.90
2023-05-12T20:52:41.092Z,1.70
2023-05-12T20:55:08.187Z,2.10
2023-05-12T20:57:37.995Z,1.90
2023-05-12T21:00:04.632Z,1.83
2023-05-12T21:02:31.148Z,1.60
2023-05-12T21:04:59.979Z,1.90
2023-05-12T21:07:26.587Z,2.20
2023-05-12T21:09:55.985Z,1.92
2023-05-12T21:12:24.860Z,2.05
2023-05-12T21:14:51.267Z,1.95
2023-05-12T21:17:17.744Z,1.95
2023-05-12T21:19:44.405Z,2.03
2023-05-12T21:22:11.108Z,2.30
2023-05-12T21:24:39.988Z,1.90
2023-05-12T21:27:07.055Z,1.95
2023-05-12T21:29:36.881Z,1.95
2023-05-12T21:32:03.429Z,1.95
2023-05-12T21:34:30.064Z,2.10
2023-05-12T21:36:56.549Z,2.20
2023-05-12T21:39:22.970Z,2.78
2023-05-12T21:41:49.306Z,2.60
2023-05-12T21:44:16.175Z,2.40
2023-05-12T21:46:42.720Z,2.50
2023-05-12T21:49:09.407Z,2.67
2023-05-12T21:51:35.790Z,2.97
2023-05-12T21:54:02.204Z,2.60
2023-05-12T21:56:28.629Z,2.97
2023-05-12T21:58:55.723Z,3.40
2023-05-12T22:01:22.169Z,3.10
2023-05-12T22:03:48.738Z,2.90
2023-05-12T22:06:15.350Z,3.10
2023-05-12T22:08:42.256Z,3.20
2023-05-12T22:11:08.960Z,3.00
2023-05-12T22:13:35.459Z,3.25
2023-05-12T22:16:03.835Z,3.53
2023-05-12T22:18:30.305Z,3.45
2023-05-12T22:20:56.739Z,3.55
2023-05-12T22:23:23.250Z,3.47
2023-05-12T22:25:49.692Z,3.40
2023-05-12T22:28:16.461Z,3.70
2023-05-12T22:30:45.499Z,3.60
2023-05-12T22:33:12.002Z,3.83
2023-05-12T22:35:38.341Z,3.35
2023-05-12T22:38:04.834Z,3.80
2023-05-12T22:40:31.306Z,3.85
2023-05-12T22:42:58.212Z,4.05
2023-05-12T22:45:25.404Z,4.18
2023-05-12T22:47:51.880Z,3.83
2023-05-12T22:50:18.794Z,3.75
2023-05-12T22:52:45.432Z,3.97
2023-05-12T22:55:11.953Z,3.88
2023-05-12T22:57:43.550Z,4.45
2023-05-12T23:00:10.109Z,4.47
2023-05-12T23:02:36.496Z,4.25
2023-05-12T23:05:04.060Z,4.15
2023-05-12T23:07:30.538Z,4.07
2023-05-12T23:09:56.861Z,4.05
2023-05-12T23:12:23.250Z,4.05
2023-05-12T23:14:50.552Z,4.03
2023-05-12T23:17:17.026Z,4.03
2023-05-12T23:19:43.376Z,4.45
2023-05-12T23:22:09.830Z,4.10
2023-05-12T23:24:36.460Z,4.32
2023-05-12T23:27:02.822Z,4.32
2023-05-12T23:29:29.227Z,4.07
2023-05-12T23:31:56.240Z,4.97
2023-05-12T23:34:22.978Z,4.25
2023-05-12T23:36:49.419Z,4.72
2023-05-12T23:39:15.795Z,4.43
2023-05-12T23:41:42.185Z,4.45
2023-05-12T23:44:08.545Z,4.60
2023-05-12T23:46:34.921Z,5.10
2023-05-12T23:49:01.293Z,4.55
2023-05-12T23:51:28.598Z,4.40
2023-05-12T23:53:55.022Z,4.32
2023-05-12T23:56:22.352Z,4.57
2023-05-12T23:58:49.116Z,4.50
